Latest Weather Observations for Wangaratta

IDV60801

Issued at 7:05 pm EST Tuesday 22 July 2014 (issued every 30 minutes, with the page automatically refreshed every 10 minutes)

About weather observations | Map of weather stations | Latest weather observations for VIC | Other Formats
Station Details ID: 082138 Name: WANGARATTA AERO Lat: -36.42 Lon: 146.31 Height: 152.6 m
Data from the previous 72 hours. | See also: Recent months at Wangaratta
Date/Time
EST
Temp
°C
App
Temp
°C
Dew
Point
Rel
Hum
%
Delta-T
°C
Wind Press
QNH
hPa
Press
MSL
hPa
Rain
since 9 am
mm
Dir
 
Spd
km/h
Gust
km/h
Spd
kts
Gust
kts
22/07:00pm 5.5 4.2 4.3 92 0.5 SSW 0 0 0 0 1023.6 - 0.0
22/06:30pm 6.4 5.2 4.7 89 0.7 W 0 0 0 0 1023.5 - 0.0
22/06:00pm 7.4 6.2 4.4 81 1.3 CALM 0 0 0 0 1023.4 1023.8 0.0
22/05:30pm 9.5 8.6 5.9 78 1.7 CALM 0 0 0 0 1023.1 - 0.0
22/05:00pm 11.3 9.4 4.7 64 3.0 ESE 4 6 2 3 1023.0 - 0.0
22/04:30pm 12.2 9.7 3.7 56 3.8 SE 6 9 3 5 1023.0 - 0.0
22/04:00pm 12.5 9.7 3.2 53 4.2 SSE 7 7 4 4 1023.1 - 0.0
22/03:30pm 13.1 11.0 3.7 53 4.3 E 4 6 2 3 1023.3 - 0.0
22/03:00pm 12.8 10.8 4.3 56 3.9 ESE 4 9 2 5 1023.4 1023.8 0.0
22/02:30pm 12.3 10.3 4.3 58 3.7 SE 4 11 2 6 1023.5 - 0.0
22/02:00pm 12.3 10.3 4.5 59 3.6 SSE 4 7 2 4 1023.6 - 0.0
22/01:30pm 11.7 10.3 3.5 57 3.7 CALM 0 0 0 0 1024.0 - 0.0
22/01:00pm 11.3 9.3 4.5 63 3.1 W 4 7 2 4 1024.4 - 0.0
22/12:30pm 10.8 8.7 4.0 63 3.0 ESE 4 7 2 4 1024.8 - 0.0
22/12:00pm 9.5 7.5 4.3 70 2.3 SSE 4 7 2 4 1025.1 1025.5 0.0
22/11:30am 8.5 6.1 4.3 75 1.9 SE 6 9 3 5 1025.5 - 0.0
22/11:00am 8.3 6.6 3.9 74 1.9 NNE 2 7 1 4 1026.1 - 0.0
22/10:30am 5.8 3.6 3.3 84 1.1 S 4 9 2 5 1026.2 - 0.0
22/10:00am 4.6 2.1 3.6 93 0.4 SSE 6 7 3 4 1026.3 - 0.0
22/09:30am 3.2 1.0 3.1 99 0.0 SSW 4 7 2 4 1026.3 - 0.0
22/09:00am 1.5 -0.3 1.4 99 0.0 CALM 0 2 0 1 1026.0 1026.3 0.0
22/08:30am 0.1 -3.0 0.0 99 0.0 SW 6 7 3 4 1026.1 - 0.0
22/08:00am -1.4 -3.6 -1.5 99 0.0 CALM 0 0 0 0 1025.9 - 0.0
22/07:30am -1.7 -3.9 -1.8 99 0.0 CALM 0 0 0 0 1025.5 - 0.0
22/07:00am -1.7 -5.1 -1.8 99 0.0 SE 6 7 3 4 1025.1 - 0.0
22/06:30am -2.2 -4.5 -2.3 99 -0.1 CALM 0 0 0 0 1024.8 - 0.0
22/06:00am -1.8 -4.0 -1.9 99 0.0 CALM 0 0 0 0 1024.6 1025.0 0.0
22/05:30am -1.4 -4.0 -1.5 99 0.0 SSE 2 6 1 3 1024.3 - 0.0
22/05:00am -0.8 -3.3 -0.9 99 0.0 SW 2 6 1 3 1024.3 - 0.0
22/04:30am -0.2 -3.4 -0.3 99 0.0 SSW 6 7 3 4 1024.1 - 0.0
22/04:00am -0.1 -3.3 -0.2 99 0.0 W 6 7 3 4 1023.9 - 0.0
22/03:30am 0.0 -3.1 -0.1 99 0.0 SW 6 7 3 4 1024.2 - 0.0
22/03:00am 0.0 -3.3 -0.1 99 0.0 WSW 7 9 4 5 1024.3 1024.7 0.0
22/02:30am 0.5 -2.6 0.4 99 0.0 SSW 6 7 3 4 1024.3 - 0.0
22/02:00am 0.4 -3.6 0.3 99 0.0 SE 11 15 6 8 1024.4 - 0.0
22/01:30am 1.3 -1.6 1.2 99 0.0 S 6 7 3 4 1024.7 - 0.0
22/01:00am 1.2 -1.9 1.1 99 0.0 S 7 7 4 4 1024.7 - 0.0
22/12:30am 1.6 -0.5 1.5 99 0.0 S 2 7 1 4 1024.8 - 0.0
22/12:00am 2.0 -0.8 1.9 99 0.0 SSW 6 7 3 4 1024.7 1025.1 0.0
 
Date/Time
EST
Temp
°C
App
Temp
°C
Dew
Point
Rel
Hum
%
Delta-T
°C
Wind Press
QNH
hPa
Press
MSL
hPa
Rain
since 9 am
mm
Dir
 
Spd
km/h
Gust
km/h
Spd
kts
Gust
kts
21/11:30pm 1.9 0.2 1.6 98 0.1 CALM 0 0 0 0 1024.8 - 0.0
21/11:00pm 2.0 -1.1 1.6 97 0.2 SSE 7 9 4 5 1024.6 - 0.0
21/10:30pm 2.7 1.0 2.1 96 0.2 CALM 0 6 0 3 1024.8 - 0.0
21/10:00pm 2.9 -0.1 2.2 95 0.3 W 7 11 4 6 1024.7 - 0.0
21/09:30pm 4.4 3.0 3.4 93 0.4 CALM 0 0 0 0 1024.7 - 0.0
21/09:00pm 5.3 2.8 4.0 91 0.6 W 6 7 3 4 1024.6 1025.0 0.0
21/08:30pm 4.7 1.0 4.3 97 0.2 S 13 17 7 9 1024.5 - 0.0
21/08:00pm 4.7 3.4 4.1 96 0.3 CALM 0 0 0 0 1024.6 - 0.0
21/07:30pm 5.0 3.8 4.4 96 0.3 CALM 0 0 0 0 1024.6 - 0.0
21/07:00pm 5.1 3.8 4.2 94 0.4 CALM 0 0 0 0 1024.4 - 0.0
21/06:30pm 5.2 3.8 3.7 90 0.6 CALM 0 0 0 0 1024.2 - 0.0
21/06:00pm 6.3 5.1 4.6 89 0.7 CALM 0 0 0 0 1024.0 1024.4 0.0
21/05:30pm 7.5 6.3 4.5 81 1.3 CALM 0 0 0 0 1023.9 - 0.0
21/05:00pm 8.7 7.5 4.7 76 1.8 CALM 0 0 0 0 1023.9 - 0.0
21/04:30pm 10.2 8.9 4.1 66 2.7 CALM 0 0 0 0 1023.9 - 0.0
21/04:00pm 11.2 9.7 3.0 57 3.6 CALM 0 0 0 0 1024.0 - 0.0
21/03:30pm 11.9 10.4 3.2 55 3.9 CALM 0 6 0 3 1024.0 - 0.0
21/03:00pm 12.2 10.8 3.4 55 3.9 CALM 0 0 0 0 1023.9 1024.3 0.0
21/02:30pm 11.7 10.0 4.2 60 3.4 NW 2 7 1 4 1024.1 - 0.0
21/02:00pm 10.8 8.4 4.3 64 2.9 SW 6 9 3 5 1024.3 - 0.0
21/01:30pm 10.9 9.8 5.0 67 2.7 CALM 0 0 0 0 1024.6 - 0.0
21/01:00pm 9.9 7.8 5.7 75 1.9 SW 6 9 3 5 1024.9 - 0.0
21/12:30pm 9.2 7.3 4.8 74 2.0 S 4 7 2 4 1025.3 - 0.0
21/12:00pm 8.4 6.6 5.2 80 1.4 S 4 7 2 4 1025.8 1026.1 0.0
21/11:30am 8.0 5.7 4.6 79 1.5 ESE 6 9 3 5 1026.3 - 0.0
21/11:00am 6.9 4.6 4.9 87 0.9 SSE 6 7 3 4 1026.6 - 0.0
21/10:30am 6.2 3.9 5.6 96 0.3 SE 7 9 4 5 1026.8 - 0.0
21/10:00am 4.8 2.5 4.7 99 0.0 SSW 6 7 3 4 1027.0 - 0.0
21/09:30am 3.7 1.2 3.6 99 0.0 S 6 7 3 4 1027.1 - 0.0
21/09:00am 2.6 -0.1 2.5 99 0.0 SSW 6 7 3 4 1027.0 1027.4 0.0
21/08:30am 1.5 -1.4 1.4 99 0.0 S 6 7 3 4 1026.9 - 0.0
21/08:00am 1.1 -0.7 1.0 99 0.0 CALM 0 0 0 0 1026.9 - 0.0
21/07:30am 0.7 -1.2 0.6 99 0.0 CALM 0 0 0 0 1026.7 - 0.0
21/07:00am 0.5 -1.4 0.4 99 0.0 CALM 0 0 0 0 1026.4 - 0.0
21/06:30am 0.9 -1.0 0.8 99 0.0 CALM 0 0 0 0 1026.5 - 0.0
21/06:00am 0.8 -1.1 0.7 99 0.0 CALM 0 0 0 0 1026.4 1026.7 0.0
21/05:30am 0.8 -1.1 0.7 99 0.0 CALM 0 0 0 0 1026.3 - 0.0
21/05:00am 0.7 -1.2 0.6 99 0.0 CALM 0 0 0 0 1026.3 - 0.0
21/04:30am 0.8 -1.1 0.7 99 0.0 CALM 0 0 0 0 1026.2 - 0.0
21/04:00am 0.8 -1.5 0.7 99 0.0 SE 2 6 1 3 1026.2 - 0.0
21/03:30am 1.1 -1.1 1.0 99 0.0 W 2 6 1 3 1026.2 - 0.0
21/03:00am 1.3 -0.5 1.2 99 0.0 CALM 0 0 0 0 1026.1 1026.4 0.0
21/02:30am 1.0 -0.8 0.9 99 0.0 CALM 0 0 0 0 1026.2 - 0.0
21/02:00am 0.8 -1.1 0.7 99 0.0 CALM 0 0 0 0 1026.0 - 0.0
21/01:30am 1.3 -0.5 1.2 99 0.0 CALM 0 0 0 0 1026.0 - 0.0
21/01:00am 1.3 -1.3 1.2 99 0.0 SW 4 7 2 4 1026.1 - 0.0
21/12:30am 1.3 -0.5 1.2 99 0.0 CALM 0 0 0 0 1026.1 - 0.0
21/12:00am 1.7 0.0 1.6 99 0.0 CALM 0 0 0 0 1026.3 1026.6 0.0
 
Date/Time
EST
Temp
°C
App
Temp
°C
Dew
Point
Rel
Hum
%
Delta-T
°C
Wind Press
QNH
hPa
Press
MSL
hPa
Rain
since 9 am
mm
Dir
 
Spd
km/h
Gust
km/h
Spd
kts
Gust
kts
20/11:30pm 2.0 -1.4 1.9 99 0.0 SSW 9 9 5 5 1026.5 - 0.0
20/11:00pm 2.1 0.4 2.0 99 0.0 CALM 0 0 0 0 1026.6 - 0.0
20/10:30pm 2.5 0.1 2.4 99 0.0 S 4 6 2 3 1026.7 - 0.0
20/10:00pm 2.9 0.0 2.8 99 0.0 S 7 9 4 5 1026.8 - 0.0
20/09:30pm 3.3 0.5 3.2 99 0.0 SSW 7 7 4 4 1026.8 - 0.0
20/09:00pm 3.4 0.6 3.3 99 0.0 WSW 7 7 4 4 1026.7 1027.1 0.0
20/08:30pm 3.4 0.8 3.1 98 0.1 SSE 6 7 3 4 1026.7 - 0.0
20/08:00pm 4.4 2.0 4.1 98 0.1 S 6 6 3 3 1026.9 - 0.0
20/07:30pm 4.9 3.7 4.5 97 0.2 CALM 0 0 0 0 1026.9 - 0.0
20/07:00pm 5.3 4.1 4.6 95 0.3 CALM 0 0 0 0 1026.8 - 0.0
20/06:30pm 6.0 4.8 4.8 92 0.5 CALM 0 0 0 0 1026.5 - 0.0
20/06:00pm 6.9 5.8 4.9 87 0.9 CALM 0 0 0 0 1026.3 1026.6 0.0
20/05:30pm 8.2 7.2 5.7 84 1.1 CALM 0 0 0 0 1026.2 - 0.0
20/05:00pm 9.5 7.6 4.7 72 2.2 E 4 6 2 3 1026.2 - 0.0
20/04:30pm 10.5 8.5 4.6 67 2.7 E 4 6 2 3 1026.1 - 0.0
20/04:00pm 10.9 8.5 4.1 63 3.1 ENE 6 7 3 4 1026.1 - 0.0
20/03:30pm 11.1 8.5 3.4 59 3.4 N 6 11 3 6 1026.3 - 0.0
20/03:00pm 11.2 8.5 3.5 59 3.4 N 7 9 4 5 1026.4 1026.7 0.0
20/02:30pm 11.1 8.0 3.4 59 3.4 NNW 9 13 5 7 1026.4 - 0.0
20/02:00pm 10.5 7.8 3.8 63 3.0 NNW 7 11 4 6 1026.6 - 0.0
20/01:30pm 10.4 7.3 3.7 63 3.0 NNW 9 15 5 8 1026.8 - 0.0
20/01:00pm 10.2 7.0 2.8 60 3.2 N 9 13 5 7 1027.2 - 0.0
20/12:30pm 10.2 7.7 3.7 64 2.9 NE 6 7 3 4 1027.6 - 0.0
20/12:00pm 8.5 6.9 4.3 75 1.8 SE 2 6 1 3 1028.0 1028.4 0.0
20/11:30am 7.0 4.4 3.4 78 1.5 SSE 6 7 3 4 1028.3 - 0.0
20/11:00am 5.9 4.0 3.1 82 1.2 NW 2 6 1 3 1028.7 - 0.0
20/10:30am 5.4 3.5 2.9 84 1.0 E 2 6 1 3 1028.8 - 0.0
20/10:00am 4.3 3.0 3.9 97 0.2 CALM 0 2 0 1 1028.9 - 0.0
20/09:30am 2.4 0.8 2.3 99 0.0 CALM 0 0 0 0 1028.7 - 0.0
20/09:00am 0.9 -1.3 0.8 99 0.0 S 2 6 1 3 1028.5 1028.9 0.0
20/08:30am -0.5 -2.6 -0.6 99 0.0 CALM 0 0 0 0 1028.4 - 0.0
20/08:00am -1.7 -3.9 -1.8 99 0.0 CALM 0 0 0 0 1028.1 - 0.0
20/07:30am -2.9 -5.3 -3.0 99 -0.1 CALM 0 0 0 0 1027.9 - 0.0
20/07:00am -2.4 -4.7 -2.5 99 -0.1 CALM 0 0 0 0 1027.7 - 0.0
20/06:30am -1.6 -3.8 -1.7 99 0.0 CALM 0 0 0 0 1027.3 - 0.0
20/06:00am -1.9 -4.2 -2.0 99 -0.1 CALM 0 0 0 0 1027.1 1027.5 0.0
20/05:30am -1.8 -4.0 -1.9 99 0.0 CALM 0 0 0 0 1026.9 - 0.0
20/05:00am -1.5 -3.7 -1.6 99 0.0 CALM 0 0 0 0 1026.8 - 0.0
20/04:30am -0.7 -2.8 -0.8 99 0.0 CALM 0 0 0 0 1026.7 - 0.0
20/04:00am -0.6 -2.7 -0.7 99 0.0 CALM 0 0 0 0 1026.6 - 0.0
20/03:30am -0.6 -2.7 -0.7 99 0.0 CALM 0 0 0 0 1026.5 - 0.0
20/03:00am -0.6 -2.7 -0.7 99 0.0 CALM 0 0 0 0 1026.7 1027.1 0.0
20/02:30am -0.8 -3.3 -0.9 99 0.0 SE 2 6 1 3 1026.8 - 0.0
20/02:00am 0.4 -2.7 0.3 99 0.0 SSW 6 6 3 3 1026.9 - 0.0
20/01:30am 1.0 -2.0 0.9 99 0.0 S 6 7 3 4 1027.0 - 0.0
20/01:00am 1.2 -1.8 1.1 99 0.0 SSW 6 7 3 4 1027.3 - 0.0
20/12:30am 1.6 -0.2 1.5 99 0.0 CALM 0 0 0 0 1027.4 - 0.0
20/12:00am 1.7 -1.2 1.4 98 0.1 SE 6 7 3 4 1027.6 1028.0 0.0
 
Date/Time
EST
Temp
°C
App
Temp
°C
Dew
Point
Rel
Hum
%
Delta-T
°C
Wind Press
QNH
hPa
Press
MSL
hPa
Rain
since 9 am
mm
Dir
 
Spd
km/h
Gust
km/h
Spd
kts
Gust
kts
19/11:30pm 2.4 0.7 2.0 97 0.2 CALM 0 0 0 0 1027.7 - 0.0
19/11:00pm 2.7 1.0 2.0 95 0.3 CALM 0 0 0 0 1027.7 - 0.0
19/10:30pm 3.9 1.3 3.2 95 0.3 SW 6 7 3 4 1027.6 - 0.0
19/10:00pm 4.9 2.2 3.9 93 0.4 S 7 9 4 5 1027.8 - 0.0
19/09:30pm 6.5 3.6 4.7 88 0.8 S 9 11 5 6 1027.8 - 0.0
19/09:00pm 6.3 3.3 4.3 87 0.9 S 9 11 5 6 1028.0 1028.4 0.0
19/08:30pm 6.0 3.1 2.8 80 1.3 SSE 7 11 4 6 1027.8 - 0.0
19/08:00pm 8.2 4.6 5.1 81 1.4 SSW 13 15 7 8 1027.7 - 0.0
19/07:30pm 8.8 5.7 5.5 80 1.5 SW 11 17 6 9 1027.7 - 0.0

Other Formats:

Comma delimited format used in spreadsheet applications
http://www.bom.gov.au/fwo/IDV60801/IDV60801.94889.axf

JavaScript Object Notation format (JSON) in row-major order
http://www.bom.gov.au/fwo/IDV60801/IDV60801.94889.json